51NY weather

CLOSED Maxon Field
Holley, New York, United States

Public forecast

Using degrees Fahrenheit for public forecast. Weather courtesy of forecast.io.

Closest aviation weather report (METAR) to Maxon Field

Closest report is Greater Rochester International Airport, 16.5 nm (30.5 km) ESE. Retrieved 2020/07/03 15:54 UTC (33 minutes ago):

KROC 031554Z 31007KT 10SM FEW048 FEW250 28/17 A2993 RMK AO2 SLP134 T02830167

Closest aviation forecast (TAF) to Maxon Field

Closest forecast is Greater Rochester International Airport, 16.5 nm (30.5 km) ESE. Retrieved 2020/07/03 12:22 UTC (4 hours ago):

TAF KROC 031120Z 0312/0412 27005KT P6SM FEW130 FM031500 31007KT P6SM SCT100 FM031800 34009KT P6SM SCT090 FM040500 25004KT P6SM FEW120 FM041100 34004KT P6SM SCT200